Chacabuco — A8JM7 — position and weather

sailwx.info

Track history (hours):
 
Tides and Currents Weather Stations Pressure Air Temp Water Temp Dewpoint Dewpoint Depression Visibility Wind Speed Wind Dir Waves Ship Positions

Chacabuco

Last reported at 2018-May-16 16:06 UTC. Time now 2018-May-22 10:12 UTC.
Position N 26°15' W 079°02'.

Length 276.2 m; beam 40 m; draft 14 m.

Type: Ship (hazmat cat A). MMSI: 636012955.

Date/timePositionNaut miles runAvg speedWind from/ knotsBaromVisibWave heightAir tempDewpointWater temp
2018-May-16 16:06N 26°15' W 079°02'1315.8
2018-May-16 15:17N 26°12' W 079°16'2417.2
2018-May-16 13:53N 25°50' W 079°27'818.9
2018-May-16 13:28N 25°42' W 079°29'919.3
2018-May-16 13:00N 25°33' W 079°31'61812.9
2018-May-14 13:08N 29°57' W 090°02'3 9.3
2018-May-14 12:51N 29°55' W 090°04'180 3.7
2018-May-12 11:41N 28°09' W 092°49'315.5
2018-May-12 11:28N 28°11' W 092°51'1117.8
2018-May-12 10:52N 28°18' W 093°01'717.9
2018-May-12 10:29N 28°22' W 093°07'1117.8
2018-May-12 09:52N 28°28' W 093°17'617.7
2018-May-12 09:30N 28°32' W 093°23'917.6
2018-May-12 09:00N 28°37' W 093°31'917.6
2018-May-12 08:30N 28°43' W 093°39'917.5
2018-May-12 07:59N 28°47' W 093°48'817.2
2018-May-12 07:30N 28°51' W 093°57'917.3
2018-May-12 06:58N 28°52' W 094°07'1017.4
2018-May-12 06:25N 28°54' W 094°18'9 9.8
2018-May-12 05:33N 28°60' W 094°26'113.9
2018-May-12 05:27N 29°01' W 094°25'915.3
2018-May-12 04:53N 29°09' W 094°28'615.3
2018-May-12 04:30N 29°13' W 094°33'5 9.7
2018-May-12 04:00N 29°17' W 094°36'612.4
2018-May-12 03:30N 29°21' W 094°42'611.8
2018-May-12 03:01N 29°22' W 094°48'611.9
2018-May-12 02:30N 29°28' W 094°51'611.4
2018-May-12 02:00N 29°33' W 094°54'510.9
2018-May-12 01:30N 29°38' W 094°58'4 7.5
2018-May-12 01:00N 29°41' W 094°60'0 0.4
2018-May-12 00:29N 29°41' W 094°60'0 0.0
2018-May-11 23:59N 29°41' W 094°60'0 0.0
2018-May-11 23:29N 29°41' W 094°60'0 0.0
2018-May-11 22:59N 29°41' W 094°60'0 0.0
2018-May-11 22:29N 29°41' W 094°60'0 0.0
2018-May-11 21:59N 29°41' W 094°60'0 0.0
2018-May-11 21:29N 29°41' W 094°60'0 0.0
2018-May-11 20:59N 29°41' W 094°60'0 0.0
2018-May-11 20:29N 29°41' W 094°60'0 0.0
2018-May-11 19:59N 29°41' W 094°60'0 0.0
2018-May-11 19:29N 29°41' W 094°60'0 0.0
2018-May-11 18:59N 29°41' W 094°60'0 0.0
2018-May-11 18:29N 29°41' W 094°60'0 0.0
2018-May-11 17:59N 29°41' W 094°60'0 0.0
2018-May-11 17:29N 29°41' W 094°60'0 0.0
2018-May-11 16:59N 29°41' W 094°60'0 0.0
2018-May-11 16:29N 29°41' W 094°60'0 0.0
2018-May-11 15:59N 29°41' W 094°60'0 0.0
2018-May-11 15:29N 29°41' W 094°60'0 0.0
2018-May-11 14:59N 29°41' W 094°60'0 0.0
2018-May-11 14:29N 29°41' W 094°60'0 0.0
2018-May-11 13:59N 29°41' W 094°60'0 0.0
2018-May-11 13:29N 29°41' W 094°60'0 0.0
2018-May-11 12:59N 29°41' W 094°60'0 0.0
2018-May-11 12:29N 29°41' W 094°60'0 0.0
2018-May-11 11:59N 29°41' W 094°60'0 0.0
2018-May-11 11:29N 29°41' W 094°60'0 0.0
2018-May-11 10:59N 29°41' W 094°60'0 0.0
2018-May-11 10:29N 29°41' W 094°60'0 0.0
2018-May-11 09:59N 29°41' W 094°60'0 0.0
2018-May-11 09:29N 29°41' W 094°60'0 0.0
2018-May-11 08:59N 29°41' W 094°60'0 0.0
2018-May-11 08:29N 29°41' W 094°60'0 0.0
2018-May-11 07:59N 29°41' W 094°60'0 0.0
2018-May-11 07:29N 29°41' W 094°60'0 0.0
2018-May-11 06:59N 29°41' W 094°60'0 0.0
2018-May-11 06:29N 29°41' W 094°60'0 0.0
2018-May-11 05:59N 29°41' W 094°60'0 0.0
2018-May-11 05:29N 29°41' W 094°60'0 0.0
2018-May-11 04:59N 29°41' W 094°60'0 0.0
2018-May-11 04:29N 29°41' W 094°60'0 0.0
2018-May-11 03:59N 29°41' W 094°60'0 0.0
2018-May-11 03:29N 29°41' W 094°60'0 0.0
2018-May-11 02:59N 29°41' W 094°60'0 0.0
2018-May-11 02:29N 29°41' W 094°60'0 0.0
2018-May-11 01:59N 29°41' W 094°60'0 0.0
2018-May-11 01:26N 29°41' W 094°60'0 0.0
2018-May-11 00:59N 29°41' W 094°60'0 0.0
2018-May-11 00:29N 29°41' W 094°60'0 0.0
2018-May-10 23:59N 29°41' W 094°60'0 0.0
2018-May-10 23:29N 29°41' W 094°60'0 0.0
2018-May-10 22:59N 29°41' W 094°60'0 0.0
2018-May-10 22:29N 29°41' W 094°60'0 0.0
2018-May-10 21:59N 29°41' W 094°60'0 0.0
2018-May-10 21:29N 29°41' W 094°60'0 0.0
2018-May-10 20:59N 29°41' W 094°60'0 0.0
2018-May-10 20:29N 29°41' W 094°60'0 0.0
2018-May-10 19:59N 29°41' W 094°60'0 0.0
2018-May-10 19:29N 29°41' W 094°60'0 0.0
2018-May-10 18:59N 29°41' W 094°60'0 0.0
2018-May-10 18:29N 29°41' W 094°60'0 0.0
2018-May-10 17:59N 29°41' W 094°60'0 0.0
2018-May-10 17:29N 29°41' W 094°60'0 0.0
2018-May-10 16:59N 29°41' W 094°60'0 0.0
2018-May-10 16:29N 29°41' W 094°60'0 0.0
2018-May-10 15:59N 29°41' W 094°60'0 0.0
2018-May-10 15:29N 29°41' W 094°60'0 0.0
2018-May-10 14:59N 29°41' W 094°60'0 0.0
2018-May-10 14:29N 29°41' W 094°60'0 0.0
2018-May-10 13:59N 29°41' W 094°60'0 0.0
2018-May-10 13:29N 29°41' W 094°60'0 0.0
2018-May-10 12:59N 29°41' W 094°60'0 0.0
2018-May-10 12:29N 29°41' W 094°60'0 0.0
2018-May-10 11:59N 29°41' W 094°60'0 0.0
2018-May-10 11:29N 29°41' W 094°60'0 0.0
2018-May-10 10:59N 29°41' W 094°60'0 0.0
2018-May-10 10:29N 29°41' W 094°60'0 1.0
2018-May-10 10:00N 29°41' W 094°59'2 3.1
2018-May-10 09:30N 29°40' W 094°58'5 9.9
2018-May-10 09:00N 29°35' W 094°56'611.8
2018-May-10 08:30N 29°30' W 094°52'611.8
2018-May-10 08:01N 29°25' W 094°50'611.8
2018-May-10 07:31N 29°21' W 094°45'714.3
2018-May-10 07:00N 29°18' W 094°37'4 8.6
2018-May-10 06:30N 29°16' W 094°33'4 7.1
2018-May-10 06:00N 29°14' W 094°30'510.1
2018-May-10 05:29N 29°10' W 094°26'612.1
2018-May-10 05:00N 29°04' W 094°25'5 9.5
2018-May-10 04:30N 29°01' W 094°28'0 0.3
2018-May-10 04:00N 29°01' W 094°28'0 0.5
2018-May-10 03:30N 29°00' W 094°28'0 0.4
2018-May-10 03:00N 29°00' W 094°28'0 0.3
2018-May-10 02:30N 29°00' W 094°28'0 0.3
2018-May-10 01:59N 29°00' W 094°28'0 0.3
2018-May-10 01:30N 28°60' W 094°28'0 0.3
2018-May-10 01:00N 28°60' W 094°29'0 0.2
2018-May-10 00:30N 28°60' W 094°29'0 0.2
2018-May-10 00:00N 28°60' W 094°29'0 0.2
2018-May-09 23:30N 28°60' W 094°29'0 0.6
2018-May-09 23:00N 28°60' W 094°28'1 1.9
2018-May-09 22:30N 29°00' W 094°27'4 7.3
2018-May-09 22:00N 29°02' W 094°24'3 5.4
2018-May-09 21:30N 28°60' W 094°25'713.0
2018-May-09 20:58N 28°53' W 094°25'1813.1
2018-May-09 19:36N 28°35' W 094°25'213.2
2018-May-09 19:28N 28°33' W 094°25'713.0
2018-May-09 18:58N 28°27' W 094°24'613.2
2018-May-09 18:30N 28°21' W 094°22'3 5.3
2018-May-09 17:59N 28°18' W 094°22'0 0.2
2018-May-09 17:30N 28°18' W 094°22'0 0.5
2018-May-09 17:00N 28°18' W 094°22'0 0.9
2018-May-09 16:30N 28°18' W 094°23'1 1.8
2018-May-09 16:00N 28°17' W 094°23'4 7.9
2018-May-09 15:30N 28°13' W 094°24'611.4
2018-May-09 15:00N 28°08' W 094°23'2 1.9
2018-May-09 14:09N 28°07' W 094°24'1 6.5
2018-May-09 14:00N 28°06' W 094°24'4914.4
2018-May-09 10:34N 27°16' W 094°26'114.8
2018-May-09 10:30N 27°15' W 094°26'4614.2
2018-May-09 07:17N 26°36' W 094°51'614.2
2018-May-09 06:52N 26°31' W 094°55'1414.1
2018-May-09 05:54N 26°20' W 095°04'  
2018-May-06 21:53N 19°39' W 096°07'615.1
2018-May-06 21:30N 19°34' W 096°04'714.8
2018-May-06 21:00N 19°27' W 096°01'714.6
2018-May-06 20:29N 19°20' W 095°58'612.9
2018-May-06 19:59N 19°14' W 095°59'511.7
2018-May-06 19:31N 19°11' W 096°04'4 8.9
2018-May-06 19:01N 19°12' W 096°08'0 0.8
2018-May-06 18:30N 19°13' W 096°08'0 0.0
2018-May-06 18:00N 19°13' W 096°08'0 0.0
2018-May-06 17:30N 19°13' W 096°08'0 0.0
2018-May-06 17:00N 19°13' W 096°08'0 0.0
2018-May-06 16:30N 19°13' W 096°08'  
Track history (hours):
 
Tides and Currents Weather Stations Pressure Air Temp Water Temp Dewpoint Dewpoint Depression Visibility Wind Speed Wind Dir Waves Ship Positions

Chacabuco

Last reported at 2018-May-16 16:06 UTC. Time now 2018-May-22 10:12 UTC.
Position N 26°15' W 079°02'.

Length 276.2 m; beam 40 m; draft 14 m.

Type: Ship (hazmat cat A). MMSI: 636012955.

Date/timePositionNaut miles runAvg speedWind from/ knotsBaromVisibWave heightAir tempDewpointWater temp
2018-May-16 16:06N 26°15' W 079°02'1315.8
2018-May-16 15:17N 26°12' W 079°16'2417.2
2018-May-16 13:53N 25°50' W 079°27'818.9
2018-May-16 13:28N 25°42' W 079°29'919.3
2018-May-16 13:00N 25°33' W 079°31'61812.9
2018-May-14 13:08N 29°57' W 090°02'3 9.3
2018-May-14 12:51N 29°55' W 090°04'180 3.7
2018-May-12 11:41N 28°09' W 092°49'315.5
2018-May-12 11:28N 28°11' W 092°51'1117.8
2018-May-12 10:52N 28°18' W 093°01'717.9
2018-May-12 10:29N 28°22' W 093°07'1117.8
2018-May-12 09:52N 28°28' W 093°17'617.7
2018-May-12 09:30N 28°32' W 093°23'917.6
2018-May-12 09:00N 28°37' W 093°31'917.6
2018-May-12 08:30N 28°43' W 093°39'917.5
2018-May-12 07:59N 28°47' W 093°48'817.2
2018-May-12 07:30N 28°51' W 093°57'917.3
2018-May-12 06:58N 28°52' W 094°07'1017.4
2018-May-12 06:25N 28°54' W 094°18'9 9.8
2018-May-12 05:33N 28°60' W 094°26'113.9
2018-May-12 05:27N 29°01' W 094°25'915.3
2018-May-12 04:53N 29°09' W 094°28'615.3
2018-May-12 04:30N 29°13' W 094°33'5 9.7
2018-May-12 04:00N 29°17' W 094°36'612.4
2018-May-12 03:30N 29°21' W 094°42'611.8
2018-May-12 03:01N 29°22' W 094°48'611.9
2018-May-12 02:30N 29°28' W 094°51'611.4
2018-May-12 02:00N 29°33' W 094°54'510.9
2018-May-12 01:30N 29°38' W 094°58'4 7.5
2018-May-12 01:00N 29°41' W 094°60'0 0.4
2018-May-12 00:29N 29°41' W 094°60'0 0.0
2018-May-11 23:59N 29°41' W 094°60'0 0.0
2018-May-11 23:29N 29°41' W 094°60'0 0.0
2018-May-11 22:59N 29°41' W 094°60'0 0.0
2018-May-11 22:29N 29°41' W 094°60'0 0.0
2018-May-11 21:59N 29°41' W 094°60'0 0.0
2018-May-11 21:29N 29°41' W 094°60'0 0.0
2018-May-11 20:59N 29°41' W 094°60'0 0.0
2018-May-11 20:29N 29°41' W 094°60'0 0.0
2018-May-11 19:59N 29°41' W 094°60'0 0.0
2018-May-11 19:29N 29°41' W 094°60'0 0.0
2018-May-11 18:59N 29°41' W 094°60'0 0.0
2018-May-11 18:29N 29°41' W 094°60'0 0.0
2018-May-11 17:59N 29°41' W 094°60'0 0.0
2018-May-11 17:29N 29°41' W 094°60'0 0.0
2018-May-11 16:59N 29°41' W 094°60'0 0.0
2018-May-11 16:29N 29°41' W 094°60'0 0.0
2018-May-11 15:59N 29°41' W 094°60'0 0.0
2018-May-11 15:29N 29°41' W 094°60'0 0.0
2018-May-11 14:59N 29°41' W 094°60'0 0.0
2018-May-11 14:29N 29°41' W 094°60'0 0.0
2018-May-11 13:59N 29°41' W 094°60'0 0.0
2018-May-11 13:29N 29°41' W 094°60'0 0.0
2018-May-11 12:59N 29°41' W 094°60'0 0.0
2018-May-11 12:29N 29°41' W 094°60'0 0.0
2018-May-11 11:59N 29°41' W 094°60'0 0.0
2018-May-11 11:29N 29°41' W 094°60'0 0.0
2018-May-11 10:59N 29°41' W 094°60'0 0.0
2018-May-11 10:29N 29°41' W 094°60'0 0.0
2018-May-11 09:59N 29°41' W 094°60'0 0.0
2018-May-11 09:29N 29°41' W 094°60'0 0.0
2018-May-11 08:59N 29°41' W 094°60'0 0.0
2018-May-11 08:29N 29°41' W 094°60'0 0.0
2018-May-11 07:59N 29°41' W 094°60'0 0.0
2018-May-11 07:29N 29°41' W 094°60'0 0.0
2018-May-11 06:59N 29°41' W 094°60'0 0.0
2018-May-11 06:29N 29°41' W 094°60'0 0.0
2018-May-11 05:59N 29°41' W 094°60'0 0.0
2018-May-11 05:29N 29°41' W 094°60'0 0.0
2018-May-11 04:59N 29°41' W 094°60'0 0.0
2018-May-11 04:29N 29°41' W 094°60'0 0.0
2018-May-11 03:59N 29°41' W 094°60'0 0.0
2018-May-11 03:29N 29°41' W 094°60'0 0.0
2018-May-11 02:59N 29°41' W 094°60'0 0.0
2018-May-11 02:29N 29°41' W 094°60'0 0.0
2018-May-11 01:59N 29°41' W 094°60'0 0.0
2018-May-11 01:26N 29°41' W 094°60'0 0.0
2018-May-11 00:59N 29°41' W 094°60'0 0.0
2018-May-11 00:29N 29°41' W 094°60'0 0.0
2018-May-10 23:59N 29°41' W 094°60'0 0.0
2018-May-10 23:29N 29°41' W 094°60'0 0.0
2018-May-10 22:59N 29°41' W 094°60'0 0.0
2018-May-10 22:29N 29°41' W 094°60'0 0.0
2018-May-10 21:59N 29°41' W 094°60'0 0.0
2018-May-10 21:29N 29°41' W 094°60'0 0.0
2018-May-10 20:59N 29°41' W 094°60'0 0.0
2018-May-10 20:29N 29°41' W 094°60'0 0.0
2018-May-10 19:59N 29°41' W 094°60'0 0.0
2018-May-10 19:29N 29°41' W 094°60'0 0.0
2018-May-10 18:59N 29°41' W 094°60'0 0.0
2018-May-10 18:29N 29°41' W 094°60'0 0.0
2018-May-10 17:59N 29°41' W 094°60'0 0.0
2018-May-10 17:29N 29°41' W 094°60'0 0.0
2018-May-10 16:59N 29°41' W 094°60'0 0.0
2018-May-10 16:29N 29°41' W 094°60'0 0.0
2018-May-10 15:59N 29°41' W 094°60'0 0.0
2018-May-10 15:29N 29°41' W 094°60'0 0.0
2018-May-10 14:59N 29°41' W 094°60'0 0.0
2018-May-10 14:29N 29°41' W 094°60'0 0.0
2018-May-10 13:59N 29°41' W 094°60'0 0.0
2018-May-10 13:29N 29°41' W 094°60'0 0.0
2018-May-10 12:59N 29°41' W 094°60'0 0.0
2018-May-10 12:29N 29°41' W 094°60'0 0.0
2018-May-10 11:59N 29°41' W 094°60'0 0.0
2018-May-10 11:29N 29°41' W 094°60'0 0.0
2018-May-10 10:59N 29°41' W 094°60'0 0.0
2018-May-10 10:29N 29°41' W 094°60'0 1.0
2018-May-10 10:00N 29°41' W 094°59'2 3.1
2018-May-10 09:30N 29°40' W 094°58'5 9.9
2018-May-10 09:00N 29°35' W 094°56'611.8
2018-May-10 08:30N 29°30' W 094°52'611.8
2018-May-10 08:01N 29°25' W 094°50'611.8
2018-May-10 07:31N 29°21' W 094°45'714.3
2018-May-10 07:00N 29°18' W 094°37'4 8.6
2018-May-10 06:30N 29°16' W 094°33'4 7.1
2018-May-10 06:00N 29°14' W 094°30'510.1
2018-May-10 05:29N 29°10' W 094°26'612.1
2018-May-10 05:00N 29°04' W 094°25'5 9.5
2018-May-10 04:30N 29°01' W 094°28'0 0.3
2018-May-10 04:00N 29°01' W 094°28'0 0.5
2018-May-10 03:30N 29°00' W 094°28'0 0.4
2018-May-10 03:00N 29°00' W 094°28'0 0.3
2018-May-10 02:30N 29°00' W 094°28'0 0.3
2018-May-10 01:59N 29°00' W 094°28'0 0.3
2018-May-10 01:30N 28°60' W 094°28'0 0.3
2018-May-10 01:00N 28°60' W 094°29'0 0.2
2018-May-10 00:30N 28°60' W 094°29'0 0.2
2018-May-10 00:00N 28°60' W 094°29'0 0.2
2018-May-09 23:30N 28°60' W 094°29'0 0.6
2018-May-09 23:00N 28°60' W 094°28'1 1.9
2018-May-09 22:30N 29°00' W 094°27'4 7.3
2018-May-09 22:00N 29°02' W 094°24'3 5.4
2018-May-09 21:30N 28°60' W 094°25'713.0
2018-May-09 20:58N 28°53' W 094°25'1813.1
2018-May-09 19:36N 28°35' W 094°25'213.2
2018-May-09 19:28N 28°33' W 094°25'713.0
2018-May-09 18:58N 28°27' W 094°24'613.2
2018-May-09 18:30N 28°21' W 094°22'3 5.3
2018-May-09 17:59N 28°18' W 094°22'0 0.2
2018-May-09 17:30N 28°18' W 094°22'0 0.5
2018-May-09 17:00N 28°18' W 094°22'0 0.9
2018-May-09 16:30N 28°18' W 094°23'1 1.8
2018-May-09 16:00N 28°17' W 094°23'4 7.9
2018-May-09 15:30N 28°13' W 094°24'611.4
2018-May-09 15:00N 28°08' W 094°23'2 1.9
2018-May-09 14:09N 28°07' W 094°24'1 6.5
2018-May-09 14:00N 28°06' W 094°24'4914.4
2018-May-09 10:34N 27°16' W 094°26'114.8
2018-May-09 10:30N 27°15' W 094°26'4614.2
2018-May-09 07:17N 26°36' W 094°51'614.2
2018-May-09 06:52N 26°31' W 094°55'1414.1
2018-May-09 05:54N 26°20' W 095°04'  
2018-May-06 21:53N 19°39' W 096°07'615.1
2018-May-06 21:30N 19°34' W 096°04'714.8
2018-May-06 21:00N 19°27' W 096°01'714.6
2018-May-06 20:29N 19°20' W 095°58'612.9
2018-May-06 19:59N 19°14' W 095°59'511.7
2018-May-06 19:31N 19°11' W 096°04'4 8.9
2018-May-06 19:01N 19°12' W 096°08'0 0.8
2018-May-06 18:30N 19°13' W 096°08'0 0.0
2018-May-06 18:00N 19°13' W 096°08'0 0.0
2018-May-06 17:30N 19°13' W 096°08'0 0.0
2018-May-06 17:00N 19°13' W 096°08'0 0.0
2018-May-06 16:30N 19°13' W 096°08'  

Dump ship's entire track history